createdAt,value
2022-09-23T00:00:01.641Z,36.03
2022-09-23T00:00:31.743Z,36.00
2022-09-23T00:01:01.968Z,36.00
2022-09-23T00:01:32.009Z,36.07
2022-09-23T00:02:02.010Z,36.04
2022-09-23T00:02:32.159Z,36.07
2022-09-23T00:03:02.167Z,36.05
2022-09-23T00:03:32.243Z,36.08
2022-09-23T00:04:02.348Z,36.14
2022-09-23T00:04:32.453Z,36.02
2022-09-23T00:05:02.557Z,36.08
2022-09-23T00:05:32.666Z,36.08
2022-09-23T00:06:02.924Z,36.01
2022-09-23T00:06:32.902Z,36.04
2022-09-23T00:07:02.882Z,36.09
2022-09-23T00:07:32.988Z,36.17
2022-09-23T00:08:03.095Z,36.15
2022-09-23T00:08:33.199Z,36.11
2022-09-23T00:09:03.309Z,36.20
2022-09-23T00:09:33.418Z,36.15
2022-09-23T00:10:03.525Z,36.19
2022-09-23T00:10:33.631Z,36.17
2022-09-23T00:11:03.737Z,36.22
2022-09-23T00:11:33.856Z,36.19
2022-09-23T00:12:08.710Z,36.23
2022-09-23T00:12:33.970Z,36.19
2022-09-23T00:13:04.077Z,36.13
2022-09-23T00:13:34.182Z,36.04
2022-09-23T00:14:04.294Z,36.04
2022-09-23T00:14:34.400Z,36.12
2022-09-23T00:15:04.529Z,36.10
2022-09-23T00:15:34.608Z,36.16
2022-09-23T00:16:04.719Z,36.14
2022-09-23T00:16:34.940Z,36.13
2022-09-23T00:17:04.973Z,36.16
2022-09-23T00:17:34.930Z,36.23
2022-09-23T00:18:05.004Z,36.25
2022-09-23T00:18:35.072Z,36.23
2022-09-23T00:19:05.142Z,36.26
2022-09-23T00:19:35.206Z,36.24
2022-09-23T00:20:05.279Z,36.27
2022-09-23T00:20:35.349Z,36.29
2022-09-23T00:21:05.448Z,36.31
2022-09-23T00:21:35.499Z,36.30
2022-09-23T00:22:05.568Z,36.30
2022-09-23T00:22:35.634Z,36.37
2022-09-23T00:23:05.702Z,36.36
2022-09-23T00:23:35.773Z,36.34
2022-09-23T00:24:06.009Z,36.35
2022-09-23T00:24:35.928Z,36.40
2022-09-23T00:25:05.997Z,36.36
2022-09-23T00:25:36.061Z,36.40
2022-09-23T00:26:06.128Z,36.40
2022-09-23T00:26:36.230Z,36.41
2022-09-23T00:27:06.340Z,36.39
2022-09-23T00:27:36.445Z,36.37
2022-09-23T00:28:06.553Z,36.44
2022-09-23T00:28:36.663Z,36.44
2022-09-23T00:29:06.769Z,36.42
2022-09-23T00:29:36.876Z,36.40
2022-09-23T00:30:06.979Z,36.41
2022-09-23T00:30:37.170Z,36.40
2022-09-23T00:31:07.165Z,36.42
2022-09-23T00:31:37.136Z,36.36
2022-09-23T00:32:07.241Z,36.38
2022-09-23T00:32:37.343Z,36.37
2022-09-23T00:33:07.458Z,36.33
2022-09-23T00:33:37.565Z,36.35
2022-09-23T00:34:07.672Z,36.28
2022-09-23T00:34:37.782Z,36.26
2022-09-23T00:35:07.888Z,36.22
2022-09-23T00:35:37.995Z,36.20
2022-09-23T00:36:08.128Z,36.17
2022-09-23T00:36:38.213Z,36.18
2022-09-23T00:37:08.323Z,36.19
2022-09-23T00:37:38.426Z,36.14
2022-09-23T00:38:08.533Z,36.14
2022-09-23T00:38:38.643Z,36.10
2022-09-23T00:39:08.761Z,36.09
2022-09-23T00:39:38.869Z,36.08
2022-09-23T00:40:09.048Z,36.05
2022-09-23T00:40:39.040Z,36.07
2022-09-23T00:41:09.117Z,36.05
2022-09-23T00:41:39.191Z,36.04
2022-09-23T00:42:09.300Z,36.03
2022-09-23T00:42:39.402Z,36.04
2022-09-23T00:43:09.513Z,36.00
2022-09-23T00:43:39.623Z,36.04
2022-09-23T00:44:09.729Z,36.02
2022-09-23T00:44:39.834Z,35.95
2022-09-23T00:45:09.942Z,35.99
2022-09-23T00:45:40.121Z,36.02
2022-09-23T00:46:10.241Z,35.98
2022-09-23T00:46:40.133Z,36.05
2022-09-23T00:47:10.241Z,35.95
2022-09-23T00:47:40.348Z,35.95
2022-09-23T00:48:10.455Z,36.00
2022-09-23T00:48:40.558Z,35.95
2022-09-23T00:49:10.670Z,35.96
2022-09-23T00:49:40.782Z,35.96
2022-09-23T00:50:10.890Z,35.99
2022-09-23T00:50:40.994Z,36.00
2022-09-23T00:51:11.123Z,36.03
2022-09-23T00:51:41.210Z,36.00
2022-09-23T00:52:11.317Z,36.09
2022-09-23T00:52:41.426Z,36.04
2022-09-23T00:53:11.534Z,36.06
2022-09-23T00:53:41.647Z,36.03
2022-09-23T00:54:11.760Z,36.06
2022-09-23T00:54:41.861Z,35.98
2022-09-23T00:55:11.969Z,36.00
2022-09-23T00:55:42.086Z,36.03
2022-09-23T00:56:12.195Z,36.07
2022-09-23T00:56:42.318Z,36.05
2022-09-23T00:57:12.417Z,36.07
2022-09-23T00:57:42.528Z,36.09
2022-09-23T00:58:12.636Z,36.09
2022-09-23T00:58:42.740Z,36.11
2022-09-23T00:59:12.847Z,36.16
2022-09-23T00:59:42.957Z,36.13
2022-09-23T01:00:13.065Z,36.12
2022-09-23T01:00:43.185Z,36.13
2022-09-23T01:01:13.306Z,36.22
2022-09-23T01:01:43.326Z,36.21
2022-09-23T01:02:13.352Z,36.24
2022-09-23T01:02:43.386Z,36.24
2022-09-23T01:03:13.364Z,36.24
2022-09-23T01:03:43.475Z,36.31
2022-09-23T01:04:13.587Z,36.30
2022-09-23T01:04:43.691Z,36.29
2022-09-23T01:05:13.796Z,36.29
2022-09-23T01:05:43.904Z,36.40
2022-09-23T01:06:14.067Z,36.37
2022-09-23T01:06:44.030Z,36.41
2022-09-23T01:07:14.136Z,36.39
2022-09-23T01:07:44.242Z,36.38
2022-09-23T01:08:14.357Z,36.45
2022-09-23T01:11:18.205Z,36.74
2022-09-23T01:11:43.238Z,36.72
2022-09-23T01:12:52.462Z,36.76
2022-09-23T01:13:22.511Z,36.75
2022-09-23T01:13:52.575Z,36.74
2022-09-23T01:14:22.637Z,36.73
2022-09-23T01:14:52.697Z,36.71
2022-09-23T01:15:22.762Z,36.73
2022-09-23T01:15:52.838Z,36.74
2022-09-23T01:16:22.967Z,36.63
2022-09-23T01:16:53.120Z,36.70
2022-09-23T01:17:23.057Z,36.66
2022-09-23T01:17:53.146Z,36.67
2022-09-23T01:18:23.193Z,36.60
2022-09-23T01:18:53.286Z,36.59
2022-09-23T01:19:23.343Z,36.51
2022-09-23T01:19:53.417Z,36.47
2022-09-23T01:20:23.483Z,36.45
2022-09-23T01:20:53.549Z,36.41
2022-09-23T01:21:23.656Z,36.36
2022-09-23T01:21:53.710Z,36.33
2022-09-23T01:22:23.772Z,36.29
2022-09-23T01:22:53.877Z,36.23
2022-09-23T01:23:23.979Z,36.21
2022-09-23T01:23:54.092Z,36.15
2022-09-23T01:24:24.189Z,36.13
2022-09-23T01:24:54.298Z,36.14
2022-09-23T01:25:24.405Z,36.13
2022-09-23T01:25:54.512Z,36.09
2022-09-23T01:26:24.646Z,36.08
2022-09-23T01:26:54.629Z,36.05
2022-09-23T01:27:24.734Z,36.09
2022-09-23T01:27:54.843Z,36.06
2022-09-23T01:28:24.948Z,36.09
2022-09-23T01:28:55.071Z,36.06
2022-09-23T01:29:25.160Z,36.01
2022-09-23T01:29:55.281Z,35.95
2022-09-23T01:30:25.505Z,35.99
2022-09-23T01:30:55.496Z,35.97
2022-09-23T01:31:25.454Z,35.98
2022-09-23T01:31:55.570Z,35.95
2022-09-23T01:32:25.673Z,35.93
2022-09-23T01:32:55.779Z,35.98
2022-09-23T01:33:25.882Z,35.94
2022-09-23T01:33:55.991Z,35.94
2022-09-23T01:34:26.095Z,36.04
2022-09-23T01:34:56.198Z,36.02
2022-09-23T01:35:26.304Z,36.05
2022-09-23T01:35:56.442Z,36.01
2022-09-23T01:36:26.458Z,36.11
2022-09-23T01:36:56.535Z,36.05
2022-09-23T01:37:26.640Z,35.97
2022-09-23T01:37:56.754Z,35.97
2022-09-23T01:38:26.859Z,35.98
2022-09-23T01:38:56.964Z,35.99
2022-09-23T01:39:27.068Z,35.98
2022-09-23T01:39:57.179Z,36.00
2022-09-23T01:40:27.360Z,36.07
2022-09-23T01:40:57.340Z,36.06
2022-09-23T01:41:27.454Z,36.06
2022-09-23T01:41:57.439Z,36.11
2022-09-23T01:42:27.552Z,36.07
2022-09-23T01:42:57.662Z,36.15
2022-09-23T01:43:27.759Z,36.15
2022-09-23T01:43:57.870Z,36.18
2022-09-23T01:44:27.971Z,36.16
2022-09-23T01:44:58.089Z,36.27
2022-09-23T01:45:28.184Z,36.23
2022-09-23T01:45:58.320Z,36.29
2022-09-23T01:46:28.316Z,36.30
2022-09-23T01:46:58.302Z,36.33
2022-09-23T01:47:28.405Z,36.32
2022-09-23T01:47:58.557Z,36.36
2022-09-23T01:48:28.588Z,36.38
2022-09-23T01:48:58.569Z,36.38
2022-09-23T01:49:28.513Z,36.47
2022-09-23T01:49:58.628Z,36.50
2022-09-23T01:50:28.729Z,36.52
2022-09-23T01:50:58.865Z,36.49
2022-09-23T01:51:28.952Z,36.48
2022-09-23T01:51:59.138Z,36.47
2022-09-23T01:52:29.079Z,36.52
2022-09-23T01:52:59.186Z,36.52
2022-09-23T01:53:29.290Z,36.48
2022-09-23T01:53:59.422Z,36.48
2022-09-23T01:54:29.502Z,36.45
2022-09-23T01:54:59.608Z,36.43
2022-09-23T01:55:29.708Z,36.45
2022-09-23T01:55:59.833Z,36.42
2022-09-23T01:56:29.810Z,36.41
2022-09-23T01:56:59.919Z,36.42
2022-09-23T01:57:30.020Z,36.41
2022-09-23T01:58:00.133Z,36.37
2022-09-23T01:58:30.228Z,36.39
2022-09-23T01:59:00.341Z,36.30
2022-09-23T01:59:30.446Z,36.30
2022-09-23T02:00:00.564Z,36.25
2022-09-23T02:00:30.665Z,36.28
2022-09-23T02:01:00.848Z,36.23
2022-09-23T02:01:30.921Z,36.21
2022-09-23T02:02:00.878Z,36.17
2022-09-23T02:02:30.910Z,36.09
2022-09-23T02:03:00.914Z,36.15
2022-09-23T02:03:31.009Z,36.13
2022-09-23T02:04:01.134Z,36.07
2022-09-23T02:04:31.217Z,36.05
2022-09-23T02:05:01.327Z,36.04
2022-09-23T02:05:31.431Z,36.07
2022-09-23T02:06:01.575Z,36.03
2022-09-23T02:06:31.547Z,36.03
2022-09-23T02:07:01.653Z,36.04
2022-09-23T02:07:31.784Z,35.96
2022-09-23T02:08:01.867Z,35.95
2022-09-23T02:08:31.967Z,35.97
2022-09-23T02:09:02.076Z,35.95
2022-09-23T02:09:32.181Z,35.99
2022-09-23T02:10:02.286Z,35.94
2022-09-23T02:10:32.389Z,35.94
2022-09-23T02:11:02.502Z,35.97
2022-09-23T02:11:32.609Z,35.93
2022-09-23T02:12:02.712Z,35.91
2022-09-23T02:12:32.800Z,35.88
2022-09-23T02:13:02.882Z,35.88
2022-09-23T02:13:32.942Z,35.83
2022-09-23T02:14:03.015Z,35.91
2022-09-23T02:14:33.074Z,35.95
2022-09-23T02:15:03.144Z,35.95
2022-09-23T02:15:33.214Z,35.86
2022-09-23T02:16:03.309Z,35.94
2022-09-23T02:16:33.413Z,35.94
2022-09-23T02:17:03.480Z,35.98
2022-09-23T02:17:33.545Z,35.93
2022-09-23T02:18:03.612Z,35.97
2022-09-23T02:18:33.674Z,35.88
2022-09-23T02:19:03.744Z,35.96
2022-09-23T02:19:33.816Z,35.91
2022-09-23T02:20:03.887Z,35.97
2022-09-23T02:20:33.954Z,35.98
2022-09-23T02:21:04.027Z,35.98
2022-09-23T02:21:34.094Z,36.04
2022-09-23T02:22:04.163Z,36.04
2022-09-23T02:22:34.268Z,36.01
2022-09-23T02:23:04.349Z,36.09
2022-09-23T02:23:34.453Z,36.11
2022-09-23T02:24:04.568Z,36.16
2022-09-23T02:24:34.674Z,36.13
2022-09-23T02:25:04.782Z,36.17
2022-09-23T02:25:34.904Z,36.20
2022-09-23T02:26:04.893Z,36.22
2022-09-23T02:26:34.998Z,36.27
2022-09-23T02:27:05.101Z,36.31
2022-09-23T02:27:35.205Z,36.36
2022-09-23T02:28:05.313Z,36.38
2022-09-23T02:28:35.418Z,36.38
2022-09-23T02:29:05.569Z,36.42
2022-09-23T02:29:35.537Z,36.43
2022-09-23T02:30:05.647Z,36.50
2022-09-23T02:30:35.750Z,36.51
2022-09-23T02:31:05.870Z,36.55
2022-09-23T02:31:35.889Z,36.59
2022-09-23T02:32:06.003Z,36.58
2022-09-23T02:32:35.974Z,36.58
2022-09-23T02:33:06.081Z,36.59
2022-09-23T02:33:36.184Z,36.56
2022-09-23T02:34:06.293Z,36.55
2022-09-23T02:34:36.398Z,36.58
2022-09-23T02:35:06.508Z,36.52
2022-09-23T02:35:36.608Z,36.49
2022-09-23T02:36:06.743Z,36.53
2022-09-23T02:36:36.720Z,36.48
2022-09-23T02:37:06.823Z,36.49
2022-09-23T02:37:36.963Z,36.52
2022-09-23T02:38:07.033Z,36.48
2022-09-23T02:38:37.125Z,36.47
2022-09-23T02:39:07.233Z,36.43
2022-09-23T02:39:37.339Z,36.46
2022-09-23T02:40:07.494Z,36.39
2022-09-23T02:40:37.514Z,36.34
2022-09-23T02:41:07.483Z,36.38
2022-09-23T02:41:37.589Z,36.30
2022-09-23T02:42:07.694Z,36.26
2022-09-23T02:42:37.794Z,36.25
2022-09-23T02:43:07.905Z,36.25
2022-09-23T02:43:38.017Z,36.21
2022-09-23T02:44:08.198Z,36.19
2022-09-23T02:44:38.209Z,36.16
2022-09-23T02:45:08.309Z,36.22
2022-09-23T02:45:38.447Z,36.15
2022-09-23T02:46:08.626Z,36.09
2022-09-23T02:46:38.633Z,36.16
2022-09-23T02:47:08.742Z,36.16
2022-09-23T02:47:38.844Z,36.11
2022-09-23T02:48:08.952Z,36.06
2022-09-23T02:48:39.056Z,36.09
2022-09-23T02:49:09.162Z,36.11
2022-09-23T02:49:39.274Z,36.07
2022-09-23T02:50:09.384Z,36.03
2022-09-23T02:50:39.497Z,36.04
2022-09-23T02:51:09.601Z,36.04
2022-09-23T02:51:39.712Z,35.98
2022-09-23T02:52:09.819Z,35.96
2022-09-23T02:52:39.954Z,35.95
2022-09-23T02:53:10.033Z,35.91
2022-09-23T02:53:40.142Z,35.93
2022-09-23T02:54:10.243Z,35.97
2022-09-23T02:54:40.355Z,35.94
2022-09-23T02:55:10.466Z,35.95
2022-09-23T02:55:40.575Z,35.93
2022-09-23T02:56:10.681Z,35.98
2022-09-23T02:56:40.798Z,35.98
2022-09-23T02:57:10.927Z,35.99
2022-09-23T02:57:40.905Z,35.98
2022-09-23T02:58:11.008Z,35.96
2022-09-23T02:58:41.115Z,36.02
2022-09-23T02:59:11.224Z,36.03
2022-09-23T02:59:41.329Z,36.06
2022-09-23T03:00:11.437Z,36.10
2022-09-23T03:00:41.551Z,36.14
2022-09-23T03:01:11.748Z,36.20
2022-09-23T03:01:41.739Z,36.20
2022-09-23T03:02:11.739Z,36.27
2022-09-23T03:02:41.868Z,36.26
2022-09-23T03:03:11.742Z,36.27
2022-09-23T03:03:41.853Z,36.32
2022-09-23T03:04:11.954Z,36.36
2022-09-23T03:04:42.054Z,36.41
2022-09-23T03:05:12.155Z,36.47
2022-09-23T03:05:42.263Z,36.47
2022-09-23T03:06:12.367Z,36.48
2022-09-23T03:06:42.472Z,36.53
2022-09-23T03:07:12.574Z,36.58
2022-09-23T03:07:42.704Z,36.50
2022-09-23T03:08:12.786Z,36.57
2022-09-23T03:08:42.888Z,36.58
2022-09-23T03:09:12.986Z,36.53
2022-09-23T03:09:43.096Z,36.56
2022-09-23T03:10:13.202Z,36.56
2022-09-23T03:10:43.308Z,36.56
2022-09-23T03:11:13.418Z,36.49
2022-09-23T03:11:43.527Z,36.48
2022-09-23T03:12:13.634Z,36.55
2022-09-23T03:12:43.721Z,36.49
2022-09-23T03:13:13.779Z,36.49
2022-09-23T03:13:43.842Z,36.43
2022-09-23T03:14:13.914Z,36.44
2022-09-23T03:14:43.985Z,36.44
2022-09-23T03:15:14.047Z,36.35
2022-09-23T03:15:44.113Z,36.35
2022-09-23T03:16:14.257Z,36.32
2022-09-23T03:16:44.301Z,36.32
2022-09-23T03:17:14.243Z,36.25
2022-09-23T03:17:44.304Z,36.23
2022-09-23T03:18:14.372Z,36.30
2022-09-23T03:18:44.440Z,36.23
2022-09-23T03:19:14.524Z,36.26
2022-09-23T03:19:44.584Z,36.20
2022-09-23T03:20:14.654Z,36.17
2022-09-23T03:20:44.720Z,36.18
2022-09-23T03:21:14.819Z,36.19
2022-09-23T03:21:44.862Z,36.17
2022-09-23T03:22:14.930Z,36.16
2022-09-23T03:22:45.053Z,36.12
2022-09-23T03:23:15.137Z,36.11
2022-09-23T03:23:45.245Z,36.12
2022-09-23T03:24:15.351Z,36.10
2022-09-23T03:24:45.458Z,36.11
2022-09-23T03:25:15.569Z,36.12
2022-09-23T03:25:45.677Z,36.11
2022-09-23T03:26:15.789Z,36.04
2022-09-23T03:26:45.892Z,36.05
2022-09-23T03:27:16.003Z,36.04
2022-09-23T03:27:46.108Z,36.00
2022-09-23T03:28:16.213Z,36.02
2022-09-23T03:28:46.318Z,35.95
2022-09-23T03:29:16.436Z,35.98
2022-09-23T03:29:46.540Z,35.92
2022-09-23T03:30:16.647Z,35.92
2022-09-23T03:30:46.745Z,35.91
2022-09-23T03:31:16.919Z,35.90
2022-09-23T03:31:46.951Z,35.91
2022-09-23T03:32:16.944Z,35.88
2022-09-23T03:32:47.064Z,35.91
2022-09-23T03:33:17.154Z,35.92
2022-09-23T03:33:47.263Z,35.91
2022-09-23T03:34:17.373Z,35.91
2022-09-23T03:34:47.474Z,35.93
2022-09-23T03:35:17.578Z,35.92
2022-09-23T03:35:47.687Z,35.85
2022-09-23T03:36:17.801Z,35.83
2022-09-23T03:36:47.908Z,35.80
2022-09-23T03:37:18.016Z,35.84
2022-09-23T03:37:48.151Z,35.91
2022-09-23T03:38:18.230Z,35.82
2022-09-23T03:38:48.341Z,35.83
2022-09-23T03:39:18.449Z,35.86
2022-09-23T03:39:48.555Z,35.86
2022-09-23T03:40:18.687Z,35.84
2022-09-23T03:40:48.833Z,35.76
2022-09-23T03:41:18.667Z,35.76
2022-09-23T03:41:48.771Z,35.83
2022-09-23T03:42:18.886Z,35.83
2022-09-23T03:42:49.005Z,35.85
2022-09-23T03:43:19.108Z,35.84
2022-09-23T03:43:49.208Z,35.88
2022-09-23T03:44:19.322Z,35.85
2022-09-23T03:44:49.429Z,35.99
2022-09-23T03:45:19.533Z,35.96
2022-09-23T03:45:49.696Z,35.93
2022-09-23T03:46:19.674Z,35.89
2022-09-23T03:46:49.924Z,35.95
2022-09-23T03:47:19.808Z,35.91
2022-09-23T03:47:49.914Z,35.90
2022-09-23T03:48:20.015Z,35.98
2022-09-23T03:48:50.127Z,35.93
2022-09-23T03:49:20.231Z,36.01
2022-09-23T03:49:50.343Z,36.02
2022-09-23T03:50:20.450Z,36.05
2022-09-23T03:50:50.561Z,36.04
2022-09-23T03:51:20.667Z,35.99
2022-09-23T03:51:50.770Z,36.02
2022-09-23T03:52:20.874Z,36.01
2022-09-23T03:52:50.985Z,36.05
2022-09-23T03:53:21.112Z,36.06
2022-09-23T03:53:51.191Z,36.05
2022-09-23T03:54:21.305Z,36.03
2022-09-23T03:54:51.409Z,36.06
2022-09-23T03:55:21.518Z,36.09
2022-09-23T03:55:51.616Z,36.09
2022-09-23T03:56:21.721Z,36.10
2022-09-23T03:56:51.828Z,36.07
2022-09-23T03:57:21.967Z,36.10
2022-09-23T03:57:51.949Z,36.06
2022-09-23T03:58:22.035Z,36.11
2022-09-23T03:58:52.140Z,36.06
2022-09-23T03:59:22.247Z,36.13
2022-09-23T03:59:52.350Z,36.06
2022-09-23T04:00:22.474Z,36.08
2022-09-23T04:00:52.620Z,36.06
2022-09-23T04:01:22.695Z,36.06
2022-09-23T04:01:52.728Z,36.03
2022-09-23T04:02:22.799Z,36.10
2022-09-23T04:02:52.763Z,36.07
2022-09-23T04:03:22.869Z,36.10
2022-09-23T04:03:52.973Z,36.14
2022-09-23T04:04:23.079Z,36.12
2022-09-23T04:04:53.178Z,36.14
2022-09-23T04:05:23.281Z,36.15
2022-09-23T04:05:53.393Z,36.14
2022-09-23T04:06:23.490Z,36.11
2022-09-23T04:06:53.601Z,36.11
2022-09-23T04:07:23.706Z,36.16
2022-09-23T04:07:53.818Z,36.17
2022-09-23T04:08:23.944Z,36.15
2022-09-23T04:08:54.026Z,36.15
2022-09-23T04:09:24.132Z,36.22
2022-09-23T04:09:54.239Z,36.18
2022-09-23T04:10:24.339Z,36.22
2022-09-23T04:10:55.039Z,36.22
2022-09-23T04:11:24.517Z,36.19
2022-09-23T04:11:54.626Z,36.22
2022-09-23T04:12:24.721Z,36.23
2022-09-23T04:12:54.784Z,36.26
2022-09-23T04:13:24.849Z,36.28
2022-09-23T04:13:54.920Z,36.30
2022-09-23T04:14:24.986Z,36.35
2022-09-23T04:14:55.050Z,36.40
2022-09-23T04:15:25.107Z,36.42
2022-09-23T04:15:55.234Z,36.43
2022-09-23T04:16:25.412Z,36.51
2022-09-23T04:16:55.353Z,36.52
2022-09-23T04:17:25.426Z,36.56
2022-09-23T04:17:55.489Z,36.61
2022-09-23T04:18:25.552Z,36.63
2022-09-23T04:18:55.620Z,36.61
2022-09-23T04:19:25.688Z,36.63
2022-09-23T04:19:55.748Z,36.64
2022-09-23T04:20:25.824Z,36.69
2022-09-23T04:20:55.881Z,36.65
2022-09-23T04:21:25.947Z,36.64
2022-09-23T04:21:56.023Z,36.61
2022-09-23T04:22:26.100Z,36.68
2022-09-23T04:22:56.206Z,36.67
2022-09-23T04:23:26.333Z,36.65
2022-09-23T04:23:56.415Z,36.69
2022-09-23T04:24:26.519Z,36.76
2022-09-23T04:24:56.630Z,36.82
2022-09-23T04:25:26.733Z,36.74
2022-09-23T04:25:56.836Z,36.58
2022-09-23T04:26:26.940Z,36.26
2022-09-23T04:26:57.066Z,36.27
2022-09-23T04:27:27.171Z,36.22
2022-09-23T04:27:57.284Z,35.96
2022-09-23T04:28:27.378Z,35.80
2022-09-23T04:28:57.488Z,35.66
2022-09-23T04:29:27.594Z,35.55
2022-09-23T04:29:57.695Z,35.46
2022-09-23T04:30:27.807Z,35.37
2022-09-23T04:30:57.905Z,35.32
2022-09-23T04:31:28.041Z,35.12
2022-09-23T04:31:58.137Z,35.00
2022-09-23T04:32:28.026Z,34.95
2022-09-23T04:32:58.129Z,34.82
2022-09-23T04:33:28.235Z,34.84
2022-09-23T04:33:58.343Z,34.54
2022-09-23T04:34:28.449Z,34.63
2022-09-23T04:34:58.553Z,34.88
2022-09-23T04:35:28.664Z,34.88
2022-09-23T04:35:58.764Z,35.04
2022-09-23T04:36:28.871Z,35.18
2022-09-23T04:36:58.980Z,35.13
2022-09-23T04:37:29.088Z,35.20
2022-09-23T04:37:59.188Z,35.33
2022-09-23T04:38:29.332Z,35.40
2022-09-23T04:38:59.484Z,35.40
2022-09-23T04:39:29.487Z,35.38
2022-09-23T04:39:59.488Z,35.46
2022-09-23T04:40:29.641Z,35.58
2022-09-23T04:40:59.609Z,35.60
2022-09-23T04:41:29.713Z,35.71
2022-09-23T04:41:59.824Z,35.73
2022-09-23T04:42:29.928Z,35.81
2022-09-23T04:43:00.032Z,35.92
2022-09-23T04:43:30.136Z,35.80
2022-09-23T04:44:00.249Z,35.88
2022-09-23T04:44:30.356Z,35.91
2022-09-23T04:45:00.460Z,35.93
2022-09-23T04:45:30.563Z,35.94
2022-09-23T04:46:00.672Z,35.98
2022-09-23T04:46:30.791Z,36.06
2022-09-23T04:47:00.926Z,36.09
2022-09-23T04:47:30.903Z,36.18
2022-09-23T04:48:01.007Z,36.23
2022-09-23T04:48:31.115Z,36.30
2022-09-23T04:49:01.228Z,36.27
2022-09-23T04:49:31.323Z,36.22
2022-09-23T04:50:01.429Z,36.25
2022-09-23T04:50:31.534Z,36.25
2022-09-23T04:51:01.635Z,36.25
2022-09-23T04:51:31.741Z,36.32
2022-09-23T04:52:01.847Z,36.29
2022-09-23T04:52:31.951Z,36.29
2022-09-23T04:53:02.056Z,36.23
2022-09-23T04:53:32.185Z,36.27
2022-09-23T04:54:02.267Z,36.26
2022-09-23T04:54:32.374Z,36.27
2022-09-23T04:55:02.484Z,36.27
2022-09-23T04:55:32.592Z,36.33
2022-09-23T04:56:02.696Z,36.27
2022-09-23T04:56:32.809Z,36.32
2022-09-23T04:57:02.914Z,36.32
2022-09-23T04:57:33.026Z,36.30
2022-09-23T04:58:03.123Z,36.25
2022-09-23T04:58:33.229Z,36.26
2022-09-23T04:59:03.332Z,36.36
2022-09-23T04:59:33.437Z,36.38
2022-09-23T05:00:03.542Z,36.43
2022-09-23T05:00:33.711Z,36.35
2022-09-23T05:01:05.381Z,36.33
2022-09-23T05:01:33.940Z,36.31
2022-09-23T05:02:03.852Z,36.25
2022-09-23T05:02:33.882Z,36.27
2022-09-23T05:03:03.899Z,36.23
2022-09-23T05:03:33.998Z,36.20
2022-09-23T05:04:04.115Z,36.14
2022-09-23T05:04:34.214Z,36.11
2022-09-23T05:05:04.319Z,36.11
2022-09-23T05:05:34.426Z,36.10
2022-09-23T05:06:04.533Z,36.10
2022-09-23T05:06:34.644Z,36.09
2022-09-23T05:07:04.754Z,36.05
2022-09-23T05:07:34.865Z,36.10
2022-09-23T05:08:04.971Z,36.12
2022-09-23T05:08:35.098Z,36.14
2022-09-23T05:09:05.191Z,36.15
2022-09-23T05:09:35.292Z,36.14
2022-09-23T05:10:05.399Z,36.20
2022-09-23T05:10:35.514Z,36.16
2022-09-23T05:11:05.617Z,36.18
2022-09-23T05:11:35.734Z,36.23
2022-09-23T05:12:05.837Z,36.19
2022-09-23T05:12:35.921Z,36.19
2022-09-23T05:13:05.987Z,36.18
2022-09-23T05:13:36.060Z,36.15
2022-09-23T05:14:06.126Z,36.22
2022-09-23T05:14:36.193Z,36.18
2022-09-23T05:15:06.261Z,36.19
2022-09-23T05:15:36.331Z,36.22
2022-09-23T05:16:06.547Z,36.20
2022-09-23T05:16:36.458Z,36.15
2022-09-23T05:17:06.429Z,36.18
2022-09-23T05:17:36.499Z,36.16
2022-09-23T05:18:06.564Z,36.22
2022-09-23T05:18:36.638Z,36.19
2022-09-23T05:19:06.923Z,36.21
2022-09-23T05:19:36.822Z,36.21
2022-09-23T05:20:06.890Z,36.22
2022-09-23T05:20:36.960Z,36.26
2022-09-23T05:21:07.029Z,36.24
2022-09-23T05:21:37.104Z,36.22
2022-09-23T05:22:07.173Z,36.24
2022-09-23T05:22:37.262Z,36.29
2022-09-23T05:23:07.366Z,36.28
2022-09-23T05:23:37.526Z,36.27
2022-09-23T05:24:07.586Z,36.32
2022-09-23T05:24:37.694Z,36.40
2022-09-23T05:25:07.797Z,36.37
2022-09-23T05:25:38.547Z,36.37
2022-09-23T05:26:08.001Z,36.38
2022-09-23T05:26:38.114Z,36.36
2022-09-23T05:27:08.213Z,36.36
2022-09-23T05:27:38.321Z,36.37
2022-09-23T05:28:08.419Z,36.39
2022-09-23T05:28:38.525Z,36.43
2022-09-23T05:29:08.632Z,36.34
2022-09-23T05:29:38.734Z,36.40
2022-09-23T05:30:08.843Z,36.43
2022-09-23T05:30:38.951Z,36.44
2022-09-23T05:31:09.145Z,36.46
2022-09-23T05:31:39.179Z,36.47
2022-09-23T05:32:09.178Z,36.40
2022-09-23T05:32:39.282Z,36.46
2022-09-23T05:33:09.388Z,36.40
2022-09-23T05:33:39.492Z,36.42
2022-09-23T05:34:09.592Z,36.44
2022-09-23T05:34:39.698Z,36.43
2022-09-23T05:35:09.802Z,36.40
2022-09-23T05:35:39.906Z,36.38
2022-09-23T05:36:10.006Z,36.39
2022-09-23T05:36:40.122Z,36.37
2022-09-23T05:37:10.228Z,36.41
2022-09-23T05:37:40.331Z,36.33
2022-09-23T05:38:10.433Z,36.28
2022-09-23T05:38:40.576Z,36.34
2022-09-23T05:39:10.660Z,36.28
2022-09-23T05:39:40.751Z,36.29
2022-09-23T05:40:10.902Z,36.31
2022-09-23T05:40:40.947Z,36.26
2022-09-23T05:41:10.920Z,36.30
2022-09-23T05:41:41.026Z,36.23
2022-09-23T05:42:11.129Z,36.31
2022-09-23T05:42:41.239Z,36.27
2022-09-23T05:43:11.343Z,36.26
2022-09-23T05:43:41.451Z,36.29
2022-09-23T05:44:11.553Z,36.31
2022-09-23T05:44:41.662Z,36.36
2022-09-23T05:45:11.772Z,36.29
2022-09-23T05:45:41.880Z,36.29
2022-09-23T05:46:11.926Z,36.40
2022-09-23T05:46:41.955Z,36.33
2022-09-23T05:47:11.964Z,36.38
2022-09-23T05:47:42.076Z,36.38
2022-09-23T05:48:12.176Z,36.35
2022-09-23T05:48:42.285Z,36.34
2022-09-23T05:49:12.425Z,36.35
2022-09-23T05:49:58.152Z,36.34
2022-09-23T05:50:12.425Z,36.23
2022-09-23T05:50:42.534Z,36.30
2022-09-23T05:51:12.645Z,36.31
2022-09-23T05:51:42.747Z,36.35
2022-09-23T05:52:12.855Z,36.42
2022-09-23T05:52:42.961Z,36.37
2022-09-23T05:53:13.066Z,36.35
2022-09-23T05:53:43.201Z,36.34
2022-09-23T05:54:13.275Z,36.42
2022-09-23T05:54:43.387Z,36.46
2022-09-23T05:55:13.483Z,36.46
2022-09-23T05:55:43.589Z,36.42
2022-09-23T05:56:13.695Z,36.43
2022-09-23T05:56:43.804Z,36.47
2022-09-23T05:57:13.913Z,36.50
2022-09-23T05:57:44.035Z,36.47
2022-09-23T05:58:14.117Z,36.48
2022-09-23T05:58:44.225Z,36.49
2022-09-23T05:59:14.324Z,36.50
2022-09-23T05:59:44.425Z,36.47
2022-09-23T06:00:14.599Z,36.46
2022-09-23T06:00:44.613Z,36.51
2022-09-23T06:01:14.719Z,36.54
2022-09-23T06:01:44.909Z,36.48
2022-09-23T06:02:14.957Z,36.57
2022-09-23T06:02:45.094Z,36.59
2022-09-23T06:03:15.136Z,36.62
2022-09-23T06:03:44.996Z,36.62
2022-09-23T06:04:15.098Z,36.61
2022-09-23T06:04:45.208Z,36.56
2022-09-23T06:05:15.319Z,36.61
2022-09-23T06:05:45.423Z,36.69
2022-09-23T06:06:15.525Z,36.69
2022-09-23T06:06:45.631Z,36.65
2022-09-23T06:07:15.800Z,36.69
2022-09-23T06:07:45.776Z,36.71
2022-09-23T06:08:15.877Z,36.67
2022-09-23T06:08:45.979Z,36.76
2022-09-23T06:09:16.153Z,36.72
2022-09-23T06:09:46.098Z,36.71
2022-09-23T06:10:16.204Z,36.68
2022-09-23T06:10:47.872Z,36.71
2022-09-23T06:11:16.369Z,36.69
2022-09-23T06:11:46.357Z,36.73
2022-09-23T06:12:16.465Z,36.73
2022-09-23T06:12:46.533Z,36.63
2022-09-23T06:13:16.594Z,36.60
2022-09-23T06:13:46.668Z,36.59
2022-09-23T06:14:16.737Z,36.56
2022-09-23T06:14:46.808Z,36.58
2022-09-23T06:15:16.876Z,36.53
2022-09-23T06:15:46.982Z,36.51
2022-09-23T06:16:17.069Z,36.52
2022-09-23T06:16:47.125Z,36.49
2022-09-23T06:17:17.192Z,36.52
2022-09-23T06:17:47.262Z,36.52
2022-09-23T06:18:17.330Z,36.48
2022-09-23T06:18:47.398Z,36.52
2022-09-23T06:19:17.461Z,36.55
2022-09-23T06:19:47.531Z,36.58
2022-09-23T06:20:17.595Z,36.55
2022-09-23T06:20:47.658Z,36.56
2022-09-23T06:21:17.763Z,36.58
2022-09-23T06:21:47.819Z,36.51
2022-09-23T06:22:17.880Z,36.51
2022-09-23T06:22:52.115Z,36.58
2022-09-23T06:23:18.012Z,36.60
2022-09-23T06:23:48.099Z,36.50
2022-09-23T06:24:21.417Z,36.51
2022-09-23T06:24:48.250Z,36.53
2022-09-23T06:25:18.315Z,36.43
2022-09-23T06:25:48.429Z,36.43
2022-09-23T06:26:18.557Z,36.42
2022-09-23T06:26:48.546Z,36.47
2022-09-23T06:27:18.654Z,36.50
2022-09-23T06:27:48.762Z,36.53
2022-09-23T06:28:18.872Z,36.48
2022-09-23T06:28:48.978Z,36.46
2022-09-23T06:29:19.084Z,36.53
2022-09-23T06:29:49.196Z,36.47
2022-09-23T06:30:19.309Z,36.49